Gajny, Russia
Current Conditions -  °F | °C
As of 12:30 AM on Wednesday 26 Nov 2014 (Local Time) from UUYY Reporting Station
Light Snow Light Snow  
Wind Chill: 18°   Ceiling: 1100
Heat Index: 27°   Visibility: 4mi
Dew Point: 23°   Wind: 9mph
Humidity: 86%   Direction: 260°W
Pressure: 30.09"   Gusts: 20mph
Location:  60.3°N, 54.33°E
Report Text: UUYY 252030Z 26004G09MPS 6000 -SN OVC011 M03/M05 Q1019 NOSIG1945//35 RMK QFE756/1008
Loading
Personal Weather Stations






























Interactive Weather Map New forecast layout! Learn more

10-Day Weather Forecast

Advertisements
Track Severe Weather on mobile